createdAt,value
2022-09-28T00:01:27.443Z,15.37
2022-09-28T00:03:58.238Z,15.36
2022-09-28T00:06:28.796Z,15.32
2022-09-28T00:08:58.005Z,15.31
2022-09-28T00:11:29.243Z,15.28
2022-09-28T00:14:01.461Z,15.23
2022-09-28T00:16:34.077Z,15.23
2022-09-28T00:19:03.401Z,15.21
2022-09-28T00:21:35.509Z,15.18
2022-09-28T00:24:24.018Z,15.17
2022-09-28T00:26:56.966Z,15.11
2022-09-28T00:29:28.074Z,15.08
2022-09-28T00:32:02.457Z,15.07
2022-09-28T00:34:33.111Z,15.04
2022-09-28T00:37:02.607Z,15.04
2022-09-28T00:39:31.733Z,15.01
2022-09-28T00:42:00.656Z,15.00
2022-09-28T00:44:51.125Z,14.93
2022-09-28T00:47:42.432Z,14.91
2022-09-28T00:50:19.213Z,14.89
2022-09-28T00:52:54.474Z,14.86
2022-09-28T00:55:32.088Z,14.83
2022-09-28T00:58:04.469Z,14.81
2022-09-28T01:00:32.995Z,14.77
2022-09-28T01:03:02.729Z,14.77
2022-09-28T01:05:31.600Z,14.76
2022-09-28T01:08:00.175Z,14.75
2022-09-28T01:10:31.340Z,14.74
2022-09-28T01:12:59.944Z,14.72
2022-09-28T01:15:30.854Z,14.72
2022-09-28T01:18:12.691Z,14.71
2022-09-28T01:20:59.719Z,14.71
2022-09-28T01:24:11.011Z,14.71
2022-09-28T01:27:11.065Z,14.72
2022-09-28T01:29:56.477Z,14.73
2022-09-28T01:32:37.471Z,14.76
2022-09-28T01:35:11.268Z,14.82
2022-09-28T01:37:48.478Z,14.84
2022-09-28T01:40:18.238Z,14.87
2022-09-28T01:42:51.651Z,14.88
2022-09-28T01:45:27.355Z,14.88
2022-09-28T01:48:01.989Z,14.89
2022-09-28T01:50:36.274Z,14.87
2022-09-28T01:53:13.454Z,14.87
2022-09-28T01:55:47.093Z,14.86
2022-09-28T01:58:26.035Z,14.84
2022-09-28T02:01:02.709Z,14.81
2022-09-28T02:03:37.200Z,14.80
2022-09-28T02:06:12.549Z,14.77
2022-09-28T02:08:47.401Z,14.75
2022-09-28T02:11:17.496Z,14.74
2022-09-28T02:13:51.965Z,14.71
2022-09-28T02:16:31.334Z,14.69
2022-09-28T02:19:00.086Z,14.68
2022-09-28T02:21:33.211Z,14.66
2022-09-28T02:24:07.868Z,14.64
2022-09-28T02:26:42.248Z,14.66
2022-09-28T02:29:12.851Z,14.69
2022-09-28T02:31:41.352Z,14.75
2022-09-28T02:34:10.385Z,14.82
2022-09-28T02:36:38.820Z,14.92
2022-09-28T02:39:07.116Z,15.00
2022-09-28T02:41:52.996Z,15.07
2022-09-28T02:44:44.635Z,15.14
2022-09-28T02:47:25.059Z,15.25
2022-09-28T02:50:04.489Z,15.31
2022-09-28T02:53:01.669Z,15.37
2022-09-28T02:55:53.730Z,15.42
2022-09-28T02:58:36.894Z,15.46
2022-09-28T03:01:20.812Z,15.48
2022-09-28T03:03:58.969Z,15.49
2022-09-28T03:06:38.554Z,15.49
2022-09-28T03:09:15.389Z,15.49
2022-09-28T03:11:49.739Z,15.48
2022-09-28T03:14:19.355Z,15.45
2022-09-28T03:16:49.038Z,15.44
2022-09-28T03:19:22.418Z,15.41
2022-09-28T03:21:50.782Z,15.38
2022-09-28T03:24:19.135Z,15.36
2022-09-28T03:26:47.459Z,15.33
2022-09-28T03:29:16.070Z,15.29
2022-09-28T03:31:45.138Z,15.26
2022-09-28T03:34:14.914Z,15.24
2022-09-28T03:36:43.316Z,15.24
2022-09-28T03:39:11.606Z,15.23
2022-09-28T03:41:40.148Z,15.24
2022-09-28T03:44:08.495Z,15.27
2022-09-28T03:46:36.829Z,15.32
2022-09-28T03:49:05.322Z,15.37
2022-09-28T03:51:34.979Z,15.42
2022-09-28T03:54:03.488Z,15.49
2022-09-28T03:56:31.814Z,15.55
2022-09-28T03:59:00.327Z,15.60
2022-09-28T04:01:28.713Z,15.66
2022-09-28T04:03:57.215Z,15.72
2022-09-28T04:06:26.238Z,15.77
2022-09-28T04:08:55.970Z,15.78
2022-09-28T04:11:24.572Z,15.79
2022-09-28T04:13:52.870Z,15.77
2022-09-28T04:16:21.450Z,15.74
2022-09-28T04:18:49.756Z,15.68
2022-09-28T04:21:20.516Z,15.60
2022-09-28T04:23:49.934Z,15.53
2022-09-28T04:26:22.012Z,15.42
2022-09-28T04:29:08.591Z,15.35
2022-09-28T04:31:42.455Z,15.24
2022-09-28T04:34:12.526Z,15.18
2022-09-28T04:36:40.834Z,15.11
2022-09-28T04:39:09.209Z,15.06
2022-09-28T04:41:38.997Z,15.02
2022-09-28T04:44:07.581Z,15.02
2022-09-28T04:46:37.004Z,15.01
2022-09-28T04:49:05.453Z,15.04
2022-09-28T04:51:34.324Z,15.05
2022-09-28T04:54:02.815Z,15.07
2022-09-28T04:56:31.226Z,15.11
2022-09-28T04:59:00.953Z,15.14
2022-09-28T05:01:30.096Z,15.20
2022-09-28T05:03:58.534Z,15.24
2022-09-28T05:06:28.682Z,15.28
2022-09-28T05:08:57.402Z,15.32
2022-09-28T05:11:25.822Z,15.37
2022-09-28T05:13:54.212Z,15.41
2022-09-28T05:16:25.678Z,15.45
2022-09-28T05:18:57.038Z,15.49
2022-09-28T05:21:26.561Z,15.53
2022-09-28T05:23:56.735Z,15.53
2022-09-28T05:26:25.410Z,15.56
2022-09-28T05:28:53.834Z,15.58
2022-09-28T05:31:23.633Z,15.59
2022-09-28T05:33:53.421Z,15.62
2022-09-28T05:36:21.803Z,15.64
2022-09-28T05:38:50.164Z,15.68
2022-09-28T05:41:18.584Z,15.73
2022-09-28T05:43:46.944Z,15.77
2022-09-28T05:46:15.657Z,15.86
2022-09-28T05:48:45.512Z,15.91
2022-09-28T05:51:13.906Z,15.95
2022-09-28T05:53:42.342Z,15.98
2022-09-28T05:56:10.739Z,15.99
2022-09-28T05:58:39.147Z,16.01
2022-09-28T06:01:07.545Z,16.03
2022-09-28T06:03:36.058Z,16.07
2022-09-28T06:06:06.152Z,16.10
2022-09-28T06:08:34.782Z,16.14
2022-09-28T06:11:03.743Z,16.17
2022-09-28T06:13:32.181Z,16.21
2022-09-28T06:16:01.211Z,16.26
2022-09-28T06:18:29.680Z,16.31
2022-09-28T06:20:58.159Z,16.37
2022-09-28T06:23:27.919Z,16.40
2022-09-28T06:25:56.257Z,16.45
2022-09-28T06:28:24.959Z,16.49
2022-09-28T06:30:54.195Z,16.53
2022-09-28T06:33:26.450Z,16.59
2022-09-28T06:35:54.942Z,16.65
2022-09-28T06:38:23.517Z,16.71
2022-09-28T06:40:53.299Z,16.84
2022-09-28T06:43:21.789Z,17.00
2022-09-28T06:45:54.705Z,17.11
2022-09-28T06:48:23.121Z,17.18
2022-09-28T06:50:51.878Z,17.23
2022-09-28T06:53:20.343Z,17.26
2022-09-28T06:55:49.340Z,17.31
2022-09-28T06:58:21.202Z,17.35
2022-09-28T07:00:52.384Z,17.41
2022-09-28T07:03:23.141Z,17.44
2022-09-28T07:05:54.890Z,17.47
2022-09-28T07:08:26.404Z,17.50
2022-09-28T07:10:56.474Z,17.56
2022-09-28T07:13:48.561Z,17.62
2022-09-28T07:16:21.576Z,17.70
2022-09-28T07:18:52.619Z,17.75
2022-09-28T07:21:29.373Z,17.81
2022-09-28T07:24:00.022Z,17.85
2022-09-28T07:26:28.472Z,17.94
2022-09-28T07:28:58.185Z,18.00
2022-09-28T07:31:26.684Z,18.11
2022-09-28T07:33:56.526Z,18.17
2022-09-28T07:36:25.092Z,18.24
2022-09-28T07:38:53.767Z,18.32
2022-09-28T07:41:32.277Z,18.43
2022-09-28T07:44:06.387Z,18.52
2022-09-28T07:46:36.976Z,18.61
2022-09-28T07:49:09.738Z,18.73
2022-09-28T07:51:43.580Z,18.85
2022-09-28T07:54:12.020Z,18.97
2022-09-28T07:56:40.460Z,19.10
2022-09-28T07:59:10.443Z,19.24
2022-09-28T08:01:38.980Z,19.40
2022-09-28T08:04:07.479Z,19.58
2022-09-28T08:06:35.916Z,19.71
2022-09-28T08:09:04.433Z,19.85
2022-09-28T08:11:32.884Z,19.96
2022-09-28T08:14:02.274Z,20.12
2022-09-28T08:16:32.602Z,20.30
2022-09-28T08:19:01.186Z,20.48
2022-09-28T08:21:46.878Z,20.62
2022-09-28T08:24:17.819Z,20.77
2022-09-28T08:26:47.319Z,20.87
2022-09-28T08:29:17.005Z,20.92
2022-09-28T08:31:49.447Z,20.93
2022-09-28T08:34:18.914Z,20.98
2022-09-28T08:36:47.394Z,20.96
2022-09-28T08:39:15.868Z,20.98
2022-09-28T08:41:52.856Z,21.00
2022-09-28T08:44:24.904Z,20.98
2022-09-28T08:47:01.876Z,20.95
2022-09-28T08:49:36.556Z,20.90
2022-09-28T08:52:12.169Z,20.86
2022-09-28T08:54:48.859Z,20.80
2022-09-28T08:57:23.813Z,20.74
2022-09-28T08:59:55.844Z,20.74
2022-09-28T09:02:31.459Z,20.78
2022-09-28T09:05:00.683Z,20.89
2022-09-28T09:07:59.615Z,20.97
2022-09-28T09:10:54.159Z,21.09
2022-09-28T09:13:54.119Z,21.21
2022-09-28T09:16:37.904Z,21.37
2022-09-28T09:19:17.801Z,21.50
2022-09-28T09:21:56.145Z,21.53
2022-09-28T09:24:27.930Z,21.58
2022-09-28T09:27:32.780Z,21.60
2022-09-28T09:30:13.350Z,21.69
2022-09-28T09:33:24.846Z,21.75
2022-09-28T09:36:11.787Z,21.82
2022-09-28T09:38:54.826Z,21.87
2022-09-28T09:41:38.963Z,21.93
2022-09-28T09:44:44.856Z,22.02
2022-09-28T09:47:17.893Z,22.17
2022-09-28T09:49:51.282Z,22.29
2022-09-28T09:52:28.495Z,22.38
2022-09-28T09:55:03.106Z,22.45
2022-09-28T09:57:39.629Z,22.55
2022-09-28T10:00:15.659Z,22.64
2022-09-28T10:02:46.605Z,22.70
2022-09-28T10:05:23.319Z,22.68
2022-09-28T10:08:01.492Z,22.72
2022-09-28T10:10:34.273Z,22.81
2022-09-28T10:13:03.615Z,22.92
2022-09-28T10:15:35.406Z,23.01
2022-09-28T10:18:11.850Z,23.14
2022-09-28T10:20:45.018Z,23.27
2022-09-28T10:23:23.684Z,23.46
2022-09-28T10:25:55.946Z,23.71
2022-09-28T10:28:48.675Z,23.96
2022-09-28T10:31:39.554Z,24.32
2022-09-28T10:34:11.523Z,24.66
2022-09-28T10:36:51.043Z,24.99
2022-09-28T10:39:33.769Z,25.36
2022-09-28T10:42:07.224Z,25.68
2022-09-28T10:44:45.659Z,25.92
2022-09-28T10:47:20.152Z,26.07
2022-09-28T10:49:51.253Z,26.27
2022-09-28T10:52:36.480Z,26.43
2022-09-28T10:55:32.454Z,26.73
2022-09-28T10:58:01.289Z,26.98
2022-09-28T11:00:38.813Z,27.07
2022-09-28T11:03:07.827Z,27.20
2022-09-28T11:05:37.923Z,27.29
2022-09-28T11:08:08.855Z,27.33
2022-09-28T11:10:39.443Z,27.33
2022-09-28T11:13:11.022Z,27.32
2022-09-28T11:15:44.505Z,27.32
2022-09-28T11:18:29.574Z,27.41
2022-09-28T11:21:13.007Z,27.51
2022-09-28T11:23:42.180Z,27.55
2022-09-28T11:26:18.422Z,27.46
2022-09-28T11:28:53.285Z,27.31
2022-09-28T11:31:29.282Z,27.17
2022-09-28T11:34:27.747Z,27.09
2022-09-28T11:37:33.402Z,27.12
2022-09-28T11:40:19.122Z,27.33
2022-09-28T11:42:59.479Z,27.72
2022-09-28T11:45:53.053Z,28.15
2022-09-28T11:48:27.144Z,28.47
2022-09-28T11:50:59.984Z,28.78
2022-09-28T11:53:34.880Z,29.00
2022-09-28T11:56:15.911Z,29.11
2022-09-28T11:58:50.087Z,29.09
2022-09-28T12:01:28.338Z,28.97
2022-09-28T12:04:02.630Z,28.86
2022-09-28T12:06:38.793Z,28.84
2022-09-28T12:09:22.540Z,28.92
2022-09-28T12:11:57.331Z,29.06
2022-09-28T12:14:34.314Z,29.09
2022-09-28T12:17:10.637Z,29.15
2022-09-28T12:19:46.636Z,29.19
2022-09-28T12:22:23.822Z,29.32
2022-09-28T12:24:56.597Z,29.24
2022-09-28T12:27:32.447Z,28.97
2022-09-28T12:30:12.610Z,28.73
2022-09-28T12:32:45.877Z,28.52
2022-09-28T12:35:16.851Z,28.53
2022-09-28T12:38:25.360Z,28.79
2022-09-28T12:41:05.602Z,29.12
2022-09-28T12:43:56.986Z,29.31
2022-09-28T12:46:49.066Z,29.31
2022-09-28T12:52:35.501Z,29.37
2022-09-28T12:55:39.940Z,29.35
2022-09-28T12:58:33.290Z,29.29
2022-09-28T13:01:18.558Z,29.55
2022-09-28T13:04:20.300Z,29.82
2022-09-28T13:06:58.270Z,29.99
2022-09-28T13:09:29.145Z,29.89
2022-09-28T13:12:15.908Z,29.55
2022-09-28T13:15:15.577Z,29.15
2022-09-28T13:18:01.736Z,28.75
2022-09-28T13:20:44.495Z,28.51
2022-09-28T13:23:22.722Z,28.25
2022-09-28T13:26:00.705Z,28.15
2022-09-28T13:28:30.404Z,28.42
2022-09-28T13:31:00.809Z,28.58
2022-09-28T13:33:36.866Z,28.52
2022-09-28T13:36:41.681Z,28.34
2022-09-28T13:39:52.077Z,28.19
2022-09-28T13:43:00.190Z,27.99
2022-09-28T13:45:41.527Z,27.93
2022-09-28T13:48:17.180Z,27.90
2022-09-28T13:51:12.531Z,27.84
2022-09-28T13:54:02.839Z,27.92
2022-09-28T13:56:44.497Z,28.10
2022-09-28T13:59:23.736Z,28.25
2022-09-28T14:02:02.975Z,28.30
2022-09-28T14:04:57.214Z,28.28
2022-09-28T14:07:48.739Z,28.27
2022-09-28T14:10:24.631Z,28.18
2022-09-28T14:12:54.209Z,28.07
2022-09-28T14:15:46.761Z,27.88
2022-09-28T14:18:31.339Z,27.82
2022-09-28T14:21:32.793Z,27.72
2022-09-28T14:24:22.165Z,27.69
2022-09-28T14:27:40.356Z,27.56
2022-09-28T14:30:21.440Z,27.49
2022-09-28T14:32:57.030Z,27.40
2022-09-28T14:35:33.989Z,27.28
2022-09-28T14:38:24.982Z,27.18
2022-09-28T14:41:12.626Z,27.01
2022-09-28T14:44:08.102Z,26.84
2022-09-28T14:46:45.649Z,26.71
2022-09-28T14:49:51.282Z,26.56
2022-09-28T14:52:41.549Z,26.42
2022-09-28T14:55:17.058Z,26.36
2022-09-28T14:57:56.629Z,26.33
2022-09-28T15:00:31.844Z,26.29
2022-09-28T15:03:11.430Z,26.20
2022-09-28T15:05:47.190Z,26.08
2022-09-28T15:08:17.449Z,26.00
2022-09-28T15:10:49.214Z,25.87
2022-09-28T15:13:26.599Z,25.69
2022-09-28T15:16:00.747Z,25.55
2022-09-28T15:19:26.857Z,25.36
2022-09-28T15:21:55.329Z,25.34
2022-09-28T15:24:32.838Z,25.25
2022-09-28T15:27:02.486Z,25.18
2022-09-28T15:29:33.603Z,25.09
2022-09-28T15:32:02.362Z,25.04
2022-09-28T15:34:51.632Z,25.01
2022-09-28T15:37:23.650Z,24.94
2022-09-28T15:39:54.318Z,24.88
2022-09-28T15:42:23.381Z,24.80
2022-09-28T15:45:26.586Z,24.66
2022-09-28T15:48:18.177Z,24.56
2022-09-28T15:51:05.199Z,24.42
2022-09-28T15:53:34.612Z,24.40
2022-09-28T15:56:10.212Z,24.32
2022-09-28T15:58:40.491Z,24.25
2022-09-28T16:01:36.572Z,24.11
2022-09-28T16:04:51.841Z,23.95
2022-09-28T16:07:29.824Z,23.87
2022-09-28T16:10:02.169Z,23.76
2022-09-28T16:12:46.721Z,23.64
2022-09-28T16:15:21.720Z,23.58
2022-09-28T16:17:57.851Z,23.51
2022-09-28T16:20:32.722Z,23.44
2022-09-28T16:23:09.506Z,23.37
2022-09-28T16:25:39.648Z,23.25
2022-09-28T16:28:09.089Z,23.15
2022-09-28T16:30:37.598Z,23.06
2022-09-28T16:33:27.642Z,22.95
2022-09-28T16:35:56.050Z,22.89
2022-09-28T16:38:24.681Z,22.83
2022-09-28T16:40:54.104Z,22.77
2022-09-28T16:43:27.008Z,22.72
2022-09-28T16:45:58.057Z,22.69
2022-09-28T16:48:30.758Z,22.67
2022-09-28T16:50:59.929Z,22.66
2022-09-28T16:53:46.217Z,22.62
2022-09-28T16:56:15.363Z,22.56
2022-09-28T16:58:44.240Z,22.50
2022-09-28T17:01:13.668Z,22.43
2022-09-28T17:03:46.901Z,22.35
2022-09-28T17:06:16.466Z,22.29
2022-09-28T17:08:45.120Z,22.23
2022-09-28T17:11:22.844Z,22.19
2022-09-28T17:13:56.851Z,22.17
2022-09-28T17:16:50.957Z,22.15
2022-09-28T17:19:22.780Z,22.13
2022-09-28T17:21:52.234Z,22.12
2022-09-28T17:24:21.410Z,22.09
2022-09-28T17:26:52.936Z,22.08
2022-09-28T17:29:21.479Z,22.06
2022-09-28T17:31:49.969Z,22.02
2022-09-28T17:34:20.820Z,21.97
2022-09-28T17:36:49.571Z,21.93
2022-09-28T17:39:20.295Z,21.88
2022-09-28T17:41:48.706Z,21.83
2022-09-28T17:44:17.096Z,21.77
2022-09-28T17:46:49.071Z,21.71
2022-09-28T17:49:19.699Z,21.66
2022-09-28T17:51:48.072Z,21.58
2022-09-28T17:54:20.065Z,21.52
2022-09-28T17:56:48.933Z,21.44
2022-09-28T17:59:19.490Z,21.38
2022-09-28T18:01:48.489Z,21.30
2022-09-28T18:04:46.983Z,21.25
2022-09-28T18:07:07.580Z,21.18
2022-09-28T18:09:36.044Z,21.14
2022-09-28T18:12:07.074Z,21.09
2022-09-28T18:14:36.155Z,21.07
2022-09-28T18:17:05.199Z,21.06
2022-09-28T18:19:35.088Z,21.03
2022-09-28T18:22:03.497Z,20.99
2022-09-28T18:24:32.592Z,20.96
2022-09-28T18:27:01.241Z,20.94
2022-09-28T18:29:33.104Z,20.94
2022-09-28T18:32:02.939Z,20.95
2022-09-28T18:34:31.413Z,20.94
2022-09-28T18:37:01.226Z,20.94
2022-09-28T18:39:29.693Z,20.94
2022-09-28T18:41:58.224Z,20.94
2022-09-28T18:44:26.760Z,20.94
2022-09-28T18:46:55.446Z,20.94
2022-09-28T18:49:24.530Z,20.93
2022-09-28T18:51:53.113Z,20.94
2022-09-28T18:54:23.192Z,20.90
2022-09-28T18:56:54.938Z,20.89
2022-09-28T18:59:23.974Z,20.86
2022-09-28T19:01:53.069Z,20.85
2022-09-28T19:04:21.883Z,20.84
2022-09-28T19:06:52.410Z,20.81
2022-09-28T19:09:24.665Z,20.76
2022-09-28T19:11:53.156Z,20.74
2022-09-28T19:14:21.920Z,20.68
2022-09-28T19:16:50.717Z,20.66
2022-09-28T19:19:21.553Z,20.61
2022-09-28T19:21:50.212Z,20.59
2022-09-28T19:24:20.641Z,20.57
2022-09-28T19:26:53.647Z,20.55
2022-09-28T19:29:22.731Z,20.54
2022-09-28T19:31:51.828Z,20.52
2022-09-28T19:34:20.298Z,20.46
2022-09-28T19:36:48.799Z,20.42
2022-09-28T19:39:17.896Z,20.38
2022-09-28T19:41:49.652Z,20.32
2022-09-28T19:44:25.692Z,20.24
2022-09-28T19:46:56.569Z,20.17
2022-09-28T19:49:27.524Z,20.10
2022-09-28T19:52:14.611Z,20.08
2022-09-28T19:54:45.407Z,19.99
2022-09-28T19:57:16.443Z,19.91
2022-09-28T19:59:50.677Z,19.82
2022-09-28T20:02:21.600Z,19.75
2022-09-28T20:04:50.101Z,19.69
2022-09-28T20:07:18.552Z,19.64
2022-09-28T20:09:46.952Z,19.60
2022-09-28T20:12:15.324Z,19.57
2022-09-28T20:14:45.167Z,19.55
2022-09-28T20:17:13.613Z,19.53
2022-09-28T20:19:42.327Z,19.47
2022-09-28T20:22:12.205Z,19.42
2022-09-28T20:24:40.647Z,19.37
2022-09-28T20:27:09.270Z,19.33
2022-09-28T20:29:37.681Z,19.29
2022-09-28T20:32:07.484Z,19.27
2022-09-28T20:34:35.871Z,19.23
2022-09-28T20:37:04.317Z,19.24
2022-09-28T20:39:32.686Z,19.21
2022-09-28T20:42:01.110Z,19.18
2022-09-28T20:44:29.456Z,19.15
2022-09-28T20:46:57.840Z,19.13
2022-09-28T20:49:28.216Z,19.10
2022-09-28T20:51:56.641Z,19.06
2022-09-28T20:54:25.629Z,19.05
2022-09-28T20:56:54.304Z,19.03
2022-09-28T20:59:25.963Z,18.99
2022-09-28T21:01:54.430Z,18.97
2022-09-28T21:04:22.849Z,18.93
2022-09-28T21:06:53.253Z,18.92
2022-09-28T21:09:21.616Z,18.90
2022-09-28T21:11:49.983Z,18.89
2022-09-28T21:14:18.613Z,18.86
2022-09-28T21:16:46.937Z,18.87
2022-09-28T21:19:15.351Z,18.87
2022-09-28T21:21:43.760Z,18.86
2022-09-28T21:24:13.594Z,18.85
2022-09-28T21:26:42.013Z,18.84
2022-09-28T21:29:14.827Z,18.81
2022-09-28T21:31:46.779Z,18.80
2022-09-28T21:34:18.690Z,18.79
2022-09-28T21:36:48.398Z,18.80
2022-09-28T21:39:19.496Z,18.76
2022-09-28T21:41:48.215Z,18.75
2022-09-28T21:44:16.687Z,18.73
2022-09-28T21:46:45.084Z,18.73
2022-09-28T21:49:14.332Z,18.72
2022-09-28T21:51:42.749Z,18.71
2022-09-28T21:54:12.113Z,18.67
2022-09-28T21:56:42.013Z,18.65
2022-09-28T21:59:10.398Z,18.64
2022-09-28T22:01:38.826Z,18.62
2022-09-28T22:04:07.262Z,18.60
2022-09-28T22:06:35.678Z,18.58
2022-09-28T22:09:05.434Z,18.57
2022-09-28T22:11:33.895Z,18.56
2022-09-28T22:14:03.650Z,18.56
2022-09-28T22:16:32.909Z,18.56
2022-09-28T22:19:01.610Z,18.55
2022-09-28T22:21:33.421Z,18.53
2022-09-28T22:24:03.962Z,18.53
2022-09-28T22:26:34.494Z,18.52
2022-09-28T22:29:08.014Z,18.48
2022-09-28T22:31:38.667Z,18.48
2022-09-28T22:34:08.219Z,18.47
2022-09-28T22:36:37.117Z,18.47
2022-09-28T22:39:06.488Z,18.44
2022-09-28T22:41:35.584Z,18.44
2022-09-28T22:44:05.520Z,18.44
2022-09-28T22:46:34.019Z,18.43
2022-09-28T22:49:02.632Z,18.44
2022-09-28T22:51:31.965Z,18.44
2022-09-28T22:54:01.281Z,18.46
2022-09-28T22:56:29.967Z,18.39
2022-09-28T22:58:58.742Z,18.33
2022-09-28T23:01:30.943Z,18.19
2022-09-28T23:04:00.942Z,18.19
2022-09-28T23:06:30.804Z,18.13
2022-09-28T23:08:59.774Z,18.11
2022-09-28T23:11:29.505Z,18.09
2022-09-28T23:14:00.460Z,18.10
2022-09-28T23:16:30.366Z,18.11
2022-09-28T23:18:58.817Z,18.12
2022-09-28T23:21:28.713Z,18.14
2022-09-28T23:24:01.052Z,18.10
2022-09-28T23:26:31.877Z,18.03
2022-09-28T23:29:01.403Z,17.95
2022-09-28T23:31:33.462Z,17.87
2022-09-28T23:34:04.113Z,17.81
2022-09-28T23:36:33.495Z,17.75
2022-09-28T23:39:01.971Z,17.70
2022-09-28T23:41:30.437Z,17.67
2022-09-28T23:43:59.627Z,17.67
2022-09-28T23:46:28.117Z,17.68
2022-09-28T23:48:57.836Z,17.69
2022-09-28T23:51:26.404Z,17.69
2022-09-28T23:53:54.815Z,17.68
2022-09-28T23:56:23.232Z,17.66
2022-09-28T23:58:51.599Z,17.63
